Jiu Hua San — 9VBK2 — position and weather

sailwx.info

Track history (hours):
 
Tides and Currents Weather Stations Pressure Air Temp Water Temp Dewpoint Dewpoint Depression Visibility Wind Speed Wind Dir Waves Ship Positions

Jiu Hua San

Last reported at 2015-Apr-16 22:30 UTC. Time now 2015-Apr-21 06:37 UTC.
Position N 02°17' E 101°53'.

Length 333 m; draft 11.3 m.

Type: Ship. MMSI: 565914000.

Date/timePositionNaut miles runAvg speedWind from/ knotsBaromVisibWave heightAir tempDewpointWater temp
2015-Apr-16 22:30N 02°17' E 101°53'1713.0
2015-Apr-16 21:12N 02°06' E 102°06'913.6
2015-Apr-16 20:34N 01°60' E 102°13'1414.3
2015-Apr-16 19:33N 01°52' E 102°25'1515.5
2015-Apr-16 18:33N 01°45' E 102°39'3715.5
2015-Apr-16 16:11N 01°26' E 103°09'28 2.4
2015-Apr-16 04:27N 01°14' E 103°36'0 0.0
2015-Apr-16 02:03N 01°14' E 103°36'0 0.0
2015-Apr-16 01:33N 01°14' E 103°36'0 0.0
2015-Apr-16 00:33N 01°14' E 103°36'2 2.4
2015-Apr-15 23:32N 01°12' E 103°37'7 6.9
2015-Apr-15 22:33N 01°09' E 103°43'1111.2
2015-Apr-15 21:33N 01°13' E 103°53'1212.4
2015-Apr-15 20:33N 01°16' E 104°05'  
Track history (hours):
 
Tides and Currents Weather Stations Pressure Air Temp Water Temp Dewpoint Dewpoint Depression Visibility Wind Speed Wind Dir Waves Ship Positions

Jiu Hua San

Last reported at 2015-Apr-16 22:30 UTC. Time now 2015-Apr-21 06:37 UTC.
Position N 02°17' E 101°53'.

Length 333 m; draft 11.3 m.

Type: Ship. MMSI: 565914000.

Date/timePositionNaut miles runAvg speedWind from/ knotsBaromVisibWave heightAir tempDewpointWater temp
2015-Apr-16 22:30N 02°17' E 101°53'1713.0
2015-Apr-16 21:12N 02°06' E 102°06'913.6
2015-Apr-16 20:34N 01°60' E 102°13'1414.3
2015-Apr-16 19:33N 01°52' E 102°25'1515.5
2015-Apr-16 18:33N 01°45' E 102°39'3715.5
2015-Apr-16 16:11N 01°26' E 103°09'28 2.4
2015-Apr-16 04:27N 01°14' E 103°36'0 0.0
2015-Apr-16 02:03N 01°14' E 103°36'0 0.0
2015-Apr-16 01:33N 01°14' E 103°36'0 0.0
2015-Apr-16 00:33N 01°14' E 103°36'2 2.4
2015-Apr-15 23:32N 01°12' E 103°37'7 6.9
2015-Apr-15 22:33N 01°09' E 103°43'1111.2
2015-Apr-15 21:33N 01°13' E 103°53'1212.4
2015-Apr-15 20:33N 01°16' E 104°05'  

Dump ship's entire track history